Time;durP1;ratioP1;P1;durP2;ratioP2;P2;SDS_P1;SDS_P2;PMS_P1;PMS_P2;Temp;Humidity;BMP_temperature;BMP_pressure;BME280_temperature;BME280_humidity;BME280_pressure;Samples;Min_cycle;Max_cycle;Signal;HPM_P1;HPM_P2
2023/07/26 00:02:09;;;;;;;;;8.00;8.00;;;;;28.51;45.97;95316.25;117883;1179;35739;-66
2023/07/26 00:04:37;;;;;;;;;9.67;9.67;;;;;28.50;46.12;95319.92;117855;1179;36762;-66
2023/07/26 00:07:05;;;;;;;;;10.00;10.00;;;;;28.49;45.85;95320.33;117840;1178;36348;-66
2023/07/26 00:09:33;;;;;;;;;8.00;8.00;;;;;28.52;45.90;95325.90;117943;1179;36169;-66
2023/07/26 00:12:01;;;;;;;;;10.00;10.00;;;;;28.53;45.58;95323.95;117818;1179;36067;-66
2023/07/26 00:14:29;;;;;;;;;10.00;9.33;;;;;28.52;45.77;95324.50;117806;1179;36086;-65
2023/07/26 00:16:57;;;;;;;;;9.00;9.00;;;;;28.52;45.73;95325.97;117853;1180;35648;-64
2023/07/26 00:19:25;;;;;;;;;10.67;9.33;;;;;28.52;45.83;95327.23;117847;1180;35513;-64
2023/07/26 00:21:53;;;;;;;;;10.67;10.00;;;;;28.54;45.72;95334.06;117882;1178;36372;-62
2023/07/26 00:24:21;;;;;;;;;9.00;8.33;;;;;28.53;45.52;95337.84;117884;1180;36904;-63
2023/07/26 00:26:49;;;;;;;;;8.67;8.67;;;;;28.52;45.69;95337.05;117895;1180;35644;-59
2023/07/26 00:29:17;;;;;;;;;9.00;9.00;;;;;28.53;45.65;95336.89;117879;1179;36074;-58
2023/07/26 00:31:45;;;;;;;;;10.67;9.67;;;;;28.56;45.52;95331.31;117928;1179;35534;-63
2023/07/26 00:34:13;;;;;;;;;9.33;8.67;;;;;28.55;45.41;95329.98;117836;1179;36044;-59
2023/07/26 00:36:41;;;;;;;;;10.33;8.67;;;;;28.52;45.45;95324.09;117905;1179;36602;-57
2023/07/26 00:39:09;;;;;;;;;8.00;7.67;;;;;28.54;45.50;95319.07;117938;1179;35446;-61
2023/07/26 00:41:37;;;;;;;;;10.00;10.00;;;;;28.57;45.29;95320.49;117930;1178;36334;-60
2023/07/26 00:44:05;;;;;;;;;8.00;8.00;;;;;28.56;45.42;95325.50;117889;1178;36636;-59
2023/07/26 00:46:33;;;;;;;;;7.33;7.33;;;;;28.54;45.13;95319.78;117917;1179;36053;-56
2023/07/26 00:49:02;;;;;;;;;11.67;11.67;;;;;28.55;45.37;95308.86;117893;1179;35566;-61
2023/07/26 00:51:31;;;;;;;;;9.00;9.00;;;;;28.58;45.20;95300.54;117892;1181;36551;-62
2023/07/26 00:53:59;;;;;;;;;9.67;9.67;;;;;28.57;45.14;95293.08;117884;1179;36268;-65
2023/07/26 00:56:27;;;;;;;;;9.67;9.67;;;;;28.56;45.17;95280.44;117817;1179;34926;-56
2023/07/26 00:58:55;;;;;;;;;10.00;9.00;;;;;28.57;45.15;95274.48;117994;1179;36538;-64
2023/07/26 01:01:23;;;;;;;;;9.33;9.33;;;;;28.59;45.06;95269.84;117863;1179;35939;-63
2023/07/26 01:03:51;;;;;;;;;10.00;10.00;;;;;28.58;44.97;95263.95;117872;1179;35367;-59
2023/07/26 01:06:26;;;;;;;;;13.67;12.67;;;;;28.56;44.96;95261.27;117919;1179;35525;-57
2023/07/26 01:08:59;;;;;;;;;9.67;9.67;;;;;28.57;45.15;95257.35;117836;1179;35717;-61
2023/07/26 01:11:52;;;;;;;;;8.67;8.67;;;;;28.60;45.05;95262.30;117804;1179;34653;-65
2023/07/26 01:14:32;;;;;;;;;9.00;8.67;;;;;28.63;44.73;95271.89;117836;1180;36126;-63
2023/07/26 01:17:01;;;;;;;;;8.00;8.00;;;;;28.66;44.64;95280.69;117828;1179;35191;-66
2023/07/26 01:19:29;;;;;;;;;11.33;10.00;;;;;28.66;44.78;95271.17;117784;1179;35611;-66
2023/07/26 01:21:57;;;;;;;;;8.00;8.00;;;;;28.65;44.76;95265.91;117826;1179;36071;-65
2023/07/26 01:24:25;;;;;;;;;9.67;9.00;;;;;28.62;44.80;95273.30;117773;1179;36240;-62
2023/07/26 01:26:53;;;;;;;;;10.67;8.67;;;;;28.60;44.81;95269.99;117908;1180;37065;-63
2023/07/26 01:29:21;;;;;;;;;6.50;6.50;;;;;28.61;44.93;95258.70;117842;1179;36153;-57
2023/07/26 01:31:49;;;;;;;;;8.00;8.00;;;;;28.62;44.76;95259.96;117890;1179;35940;-57
2023/07/26 01:34:17;;;;;;;;;6.33;6.33;;;;;28.61;44.73;95263.09;117924;1179;36939;-57
2023/07/26 01:36:46;;;;;;;;;8.33;8.33;;;;;28.59;44.82;95262.94;117938;1179;35873;-60
2023/07/26 01:39:14;;;;;;;;;9.00;7.50;;;;;28.60;44.74;95266.46;117777;1180;35601;-59
2023/07/26 01:41:42;;;;;;;;;7.00;7.00;;;;;28.61;44.68;95255.16;117822;1179;36649;-63
2023/07/26 01:44:12;;;;;;;;;9.00;9.00;;;;;28.60;44.56;95249.98;117857;1179;36198;-62
2023/07/26 01:46:40;;;;;;;;;7.67;7.67;;;;;28.59;44.71;95262.94;117939;1179;35648;-60
2023/07/26 01:49:08;;;;;;;;;8.67;8.67;;;;;28.60;44.65;95266.15;117871;1179;36778;-67
2023/07/26 01:51:36;;;;;;;;;8.00;8.00;;;;;28.60;44.78;95256.02;117844;1179;36994;-65
2023/07/26 01:54:07;;;;;;;;;9.33;9.33;;;;;28.58;44.76;95258.70;117880;1179;36376;-66
2023/07/26 01:56:35;;;;;;;;;7.67;7.67;;;;;28.58;44.62;95260.02;117950;1179;36270;-59
2023/07/26 01:59:03;;;;;;;;;7.67;7.67;;;;;28.59;44.70;95254.69;117904;1180;36058;-67
2023/07/26 02:01:31;;;;;;;;;8.00;8.00;;;;;28.60;44.57;95263.24;117889;1179;35745;-66
2023/07/26 02:04:00;;;;;;;;;7.00;7.00;;;;;28.59;44.55;95270.39;117895;1178;35648;-63
2023/07/26 02:06:28;;;;;;;;;8.00;6.67;;;;;28.58;44.72;95268.59;117928;1179;35003;-56
2023/07/26 02:08:56;;;;;;;;;9.00;9.00;;;;;28.61;44.57;95275.27;117839;1178;35787;-57
2023/07/26 02:11:24;;;;;;;;;9.00;8.00;;;;;28.67;44.24;95277.92;117917;1179;36201;-62
2023/07/26 02:13:53;;;;;;;;;8.00;8.00;;;;;28.71;44.28;95279.35;117867;1179;36117;-58
2023/07/26 02:16:20;;;;;;;;;7.00;6.33;;;;;28.74;44.19;95280.60;117844;1179;35729;-56
2023/07/26 02:18:48;;;;;;;;;8.33;8.33;;;;;28.76;43.94;95282.95;117845;1180;36855;-58
2023/07/26 02:21:17;;;;;;;;;7.00;7.00;;;;;28.80;44.00;95279.56;117847;1180;35917;-59
2023/07/26 02:23:44;;;;;;;;;9.00;9.00;;;;;28.79;44.12;95272.04;117918;1191;36263;-62
2023/07/26 02:26:12;;;;;;;;;10.00;10.00;;;;;28.78;43.95;95268.50;117897;1179;35622;-58
2023/07/26 02:28:40;;;;;;;;;7.00;7.00;;;;;28.78;43.88;95265.27;117915;1179;35957;-58
2023/07/26 02:31:08;;;;;;;;;9.33;9.33;;;;;28.80;43.98;95261.11;117883;1180;36313;-60
2023/07/26 02:33:36;;;;;;;;;8.67;8.67;;;;;28.81;43.84;95250.51;117912;1179;35722;-64
2023/07/26 02:36:04;;;;;;;;;9.00;9.00;;;;;28.80;43.95;95237.08;117895;1180;35368;-60
2023/07/26 02:38:32;;;;;;;;;8.33;8.33;;;;;28.80;44.02;95230.09;117905;1179;35822;-64
2023/07/26 02:41:00;;;;;;;;;7.33;7.33;;;;;28.82;43.72;95223.89;117906;1180;36771;-63
2023/07/26 02:43:29;;;;;;;;;8.00;8.00;;;;;28.82;43.61;95219.64;117839;1179;35433;-63
2023/07/26 02:46:08;;;;;;;;;7.00;7.00;;;;;28.81;43.71;95217.13;117759;1178;34757;-59
2023/07/26 02:48:36;;;;;;;;;7.00;7.00;;;;;28.83;43.78;95202.66;118152;1183;35463;-64
2023/07/26 02:51:04;;;;;;;;;7.33;7.33;;;;;28.85;43.56;95187.26;117847;1179;34953;-65
2023/07/26 02:53:32;;;;;;;;;9.33;8.00;;;;;28.83;43.57;95173.30;117824;1179;35252;-64
2023/07/26 02:56:00;;;;;;;;;7.50;7.50;;;;;28.80;43.77;95164.42;117854;1180;35357;-65
2023/07/26 02:58:28;;;;;;;;;9.33;8.00;;;;;28.79;43.72;95165.85;117872;1179;36759;-62
2023/07/26 03:00:56;;;;;;;;;8.00;8.00;;;;;28.80;43.71;95177.85;117775;1180;35969;-61
2023/07/26 03:03:24;;;;;;;;;10.00;10.00;;;;;28.77;43.69;95193.27;117802;1180;37360;-58
2023/07/26 03:05:53;;;;;;;;;8.33;7.33;;;;;28.75;43.87;95202.92;117847;1179;35862;-62
2023/07/26 03:08:21;;;;;;;;;7.67;7.67;;;;;28.74;43.75;95200.26;117794;1180;35458;-63
2023/07/26 03:10:52;;;;;;;;;9.00;9.00;;;;;28.75;43.71;95193.26;117706;1180;35804;-58
2023/07/26 03:13:20;;;;;;;;;8.00;8.00;;;;;28.73;43.84;95201.52;117791;1179;36279;-58
2023/07/26 03:15:48;;;;;;;;;7.33;7.33;;;;;28.71;43.73;95211.96;117796;1179;35552;-62
2023/07/26 03:18:17;;;;;;;;;8.67;8.67;;;;;28.70;43.76;95219.52;117820;1179;35306;-59
2023/07/26 03:20:48;;;;;;;;;12.33;10.33;;;;;28.72;43.64;95221.23;117788;1180;35938;-64
2023/07/26 03:23:16;;;;;;;;;7.33;7.00;;;;;28.70;43.72;95223.81;117784;1180;36165;-59
2023/07/26 03:25:44;;;;;;;;;7.67;7.67;;;;;28.67;43.84;95242.20;117790;1179;35195;-63
2023/07/26 03:28:12;;;;;;;;;10.67;9.33;;;;;28.67;43.70;95278.01;117750;1179;37535;-61
2023/07/26 03:30:40;;;;;;;;;7.00;7.00;;;;;28.68;43.75;95323.95;117778;1179;35413;-58
2023/07/26 03:33:09;;;;;;;;;10.00;8.33;;;;;28.66;43.77;95364.86;117782;1179;35672;-66
2023/07/26 03:35:37;;;;;;;;;7.67;7.67;;;;;28.64;43.79;95372.56;117907;1179;36136;-65
2023/07/26 03:38:05;;;;;;;;;8.33;8.33;;;;;28.63;43.88;95367.23;117883;1179;35961;-62
2023/07/26 03:40:34;;;;;;;;;7.67;7.67;;;;;28.65;43.71;95372.41;117863;1179;35640;-66
2023/07/26 03:43:01;;;;;;;;;7.33;7.33;;;;;28.63;43.85;95349.79;117822;1180;34714;-67
2023/07/26 03:45:30;;;;;;;;;9.00;9.00;;;;;28.62;43.68;95347.82;117827;1179;36197;-67
2023/07/26 03:47:58;;;;;;;;;9.00;9.00;;;;;28.60;44.03;95360.38;117910;1179;36247;-66
2023/07/26 03:50:26;;;;;;;;;8.67;7.00;;;;;28.62;43.84;95342.02;117846;1179;36116;-61
2023/07/26 03:52:54;;;;;;;;;10.33;10.00;;;;;28.62;43.81;95329.74;117813;1179;36418;-63
2023/07/26 03:55:22;;;;;;;;;11.00;8.00;;;;;28.60;43.81;95329.91;117786;1180;35279;-63
2023/07/26 03:57:50;;;;;;;;;8.33;7.33;;;;;28.58;43.91;95317.36;117834;1178;35964;-62
2023/07/26 04:00:18;;;;;;;;;8.00;8.00;;;;;28.59;43.97;95308.02;117837;1181;35622;-57
2023/07/26 04:02:46;;;;;;;;;9.50;9.00;;;;;28.59;43.74;95318.22;117822;1180;36130;-59
2023/07/26 04:05:14;;;;;;;;;7.00;7.00;;;;;28.57;43.91;95312.63;117788;1179;35879;-63
2023/07/26 04:07:42;;;;;;;;;8.00;8.00;;;;;28.55;43.81;95314.60;117875;1179;35989;-63
2023/07/26 04:10:10;;;;;;;;;7.00;7.00;;;;;28.57;43.73;95329.36;117783;1179;36607;-60
2023/07/26 04:12:38;;;;;;;;;8.00;8.00;;;;;28.57;43.75;95325.82;117817;1179;37018;-66
2023/07/26 04:15:07;;;;;;;;;8.33;8.33;;;;;28.56;43.70;95306.42;117818;1179;36043;-67
2023/07/26 04:17:35;;;;;;;;;11.33;11.33;;;;;28.57;44.51;95298.59;117803;1179;36887;-63
2023/07/26 04:20:04;;;;;;;;;16.00;16.00;;;;;28.61;45.15;95310.91;117852;1192;35544;-69
2023/07/26 04:22:32;;;;;;;;;13.67;12.67;;;;;28.62;45.20;95315.70;117868;1179;34894;-68
2023/07/26 04:25:00;;;;;;;;;16.00;13.00;;;;;28.53;45.23;95318.28;117783;1180;35545;-66
2023/07/26 04:27:28;;;;;;;;;12.33;11.33;;;;;28.52;45.30;95314.60;117827;1178;35976;-65
2023/07/26 04:29:56;;;;;;;;;17.00;15.00;;;;;28.56;46.19;95315.77;117867;1179;35890;-63
2023/07/26 04:32:24;;;;;;;;;14.00;14.00;;;;;28.57;46.29;95316.25;117915;1180;34868;-61
2023/07/26 04:34:52;;;;;;;;;13.00;13.00;;;;;28.51;45.95;95315.77;117865;1187;35357;-63
2023/07/26 04:37:20;;;;;;;;;13.00;13.00;;;;;28.48;45.59;95316.09;117857;1179;36154;-63
2023/07/26 04:39:48;;;;;;;;;19.00;17.00;;;;;28.51;45.92;95318.44;117856;1178;36239;-69
